Terminal Aerodrome Forecast
Issued by NWS Grand Rapids, MI

Home | Current Version | Previous Version | Text Only | Print | Product List | Glossary On
Versions: 1 2 3 4 5 6 7 8 9 10 11 12 13 14 15 16 17 18 19 20 21
658
FTUS43 KGRR 291232 AAA
TAFGRR
TAF AMD
KGRR 291232Z 2913/3012 04012KT P6SM OVC025
      TEMPO 2914/2916 OVC035
     FM291600 06010KT P6SM OVC070
     FM292000 07011KT 5SM -SHRA VCTS OVC050CB
     FM300000 07014G23KT 2SM SHRA BR VCTS OVC025CB
     FM300300 07018G32KT 4SM -SHRA BR OVC025
     FM300900 08016G28KT 2SM SHRA BR OVC008=

USA.gov is the U.S. government's official web portal to all federal, state and local government web resources and services.